Time;durP1;ratioP1;P1;durP2;ratioP2;P2;SDS_P1;SDS_P2;PMS_P1;PMS_P2;Temp;Humidity;BMP_temperature;BMP_pressure;BME280_temperature;BME280_humidity;BME280_pressure;Samples;Min_cycle;Max_cycle;Signal;HPM_P1;HPM_P2
2021/03/27 00:00:00;;;;;;;6.00;4.80;;;18.20;41.00;;;;;;5046293;28;20515;-44
2021/03/27 00:02:31;;;;;;;5.57;5.07;;;18.30;41.00;;;;;;5041201;28;20922;-42
2021/03/27 00:05:15;;;;;;;7.50;5.20;;;18.20;41.20;;;;;;5052029;28;20832;-42
2021/03/27 00:07:49;;;;;;;6.53;5.50;;;18.10;41.30;;;;;;5052325;28;20549;-44
2021/03/27 00:10:28;;;;;;;7.37;4.80;;;17.90;41.50;;;;;;5051914;28;20539;-43
2021/03/27 00:13:09;;;;;;;12.47;5.93;;;17.90;41.90;;;;;;5050883;28;20980;-42
2021/03/27 00:15:36;;;;;;;9.20;6.10;;;17.70;42.50;;;;;;5051932;28;20446;-42
2021/03/27 00:18:08;;;;;;;5.77;5.13;;;17.00;43.90;;;;;;5051910;28;20488;-47
2021/03/27 00:20:53;;;;;;;8.33;5.67;;;16.90;45.20;;;;;;5048647;28;20469;-43
2021/03/27 00:23:42;;;;;;;6.67;5.77;;;16.60;46.30;;;;;;5052085;28;20431;-43
2021/03/27 00:26:24;;;;;;;10.73;8.00;;;16.50;47.20;;;;;;5050918;28;20535;-42
2021/03/27 00:28:57;;;;;;;7.70;5.97;;;16.20;47.80;;;;;;5052436;28;20423;-42
2021/03/27 00:31:29;;;;;;;5.03;4.60;;;16.30;48.10;;;;;;5051625;28;20494;-42
2021/03/27 00:34:03;;;;;;;5.00;4.50;;;16.20;48.10;;;;;;5052167;28;20424;-46
2021/03/27 00:36:35;;;;;;;6.67;5.27;;;16.10;48.30;;;;;;5051418;28;20818;-43
2021/03/27 00:39:13;;;;;;;6.37;4.73;;;16.00;48.50;;;;;;5050442;28;20424;-43
2021/03/27 00:41:51;;;;;;;11.13;4.50;;;16.00;48.70;;;;;;5051292;28;21005;-42
2021/03/27 00:44:19;;;;;;;5.60;4.43;;;16.20;48.90;;;;;;5051775;28;20454;-44
2021/03/27 00:46:46;;;;;;;5.60;4.90;;;16.30;48.90;;;;;;5051008;28;20430;-45
2021/03/27 00:49:37;;;;;;;4.80;4.30;;;16.50;49.00;;;;;;5052623;28;20431;-44
2021/03/27 00:52:08;;;;;;;4.93;4.53;;;16.30;49.20;;;;;;5047522;28;20833;-42
2021/03/27 00:54:44;;;;;;;4.50;4.10;;;16.20;49.80;;;;;;5051664;28;20430;-46
2021/03/27 00:57:18;;;;;;;4.73;4.33;;;16.00;51.10;;;;;;5050817;28;20419;-42
2021/03/27 01:00:15;;;;;;;5.17;4.20;;;16.00;50.60;;;;;;5046559;28;21022;-46
2021/03/27 01:02:53;;;;;;;4.13;3.73;;;16.00;51.00;;;;;;5042048;28;20427;-43
2021/03/27 01:05:26;;;;;;;4.40;4.00;;;16.00;51.10;;;;;;5049208;28;20435;-43
2021/03/27 01:07:54;;;;;;;5.63;4.83;;;15.90;51.40;;;;;;5050732;28;20479;-43
2021/03/27 01:10:32;;;;;;;4.00;3.70;;;15.50;51.90;;;;;;5050855;28;20471;-43
2021/03/27 01:13:08;;;;;;;3.90;3.57;;;15.60;52.10;;;;;;5051334;28;20548;-44
2021/03/27 01:15:40;;;;;;;4.27;3.87;;;15.70;52.00;;;;;;5050540;28;20431;-47
2021/03/27 01:18:10;;;;;;;3.90;3.30;;;15.90;51.90;;;;;;5050590;28;20777;-42
2021/03/27 01:20:40;;;;;;;5.13;4.50;;;15.60;52.40;;;;;;5047528;28;20961;-44
2021/03/27 01:23:09;;;;;;;7.40;4.07;;;15.60;52.90;;;;;;5051203;28;20423;-42
2021/03/27 01:25:37;;;;;;;4.50;4.10;;;15.50;53.20;;;;;;5050552;28;20431;-44
2021/03/27 01:28:05;;;;;;;4.40;4.00;;;15.30;53.90;;;;;;5049293;28;20449;-43
2021/03/27 01:31:12;;;;;;;5.10;4.27;;;15.10;54.20;;;;;;5050390;28;20471;-42
2021/03/27 01:33:58;;;;;;;4.70;4.20;;;15.30;54.60;;;;;;5041431;28;20778;-42
2021/03/27 01:36:39;;;;;;;4.40;4.00;;;15.40;54.50;;;;;;5049568;28;20454;-42
2021/03/27 01:39:17;;;;;;;6.63;4.30;;;15.30;54.70;;;;;;5050687;28;20420;-42
2021/03/27 01:42:05;;;;;;;10.93;4.90;;;15.10;54.80;;;;;;5050689;28;20437;-42
2021/03/27 01:45:09;;;;;;;4.60;4.10;;;15.20;54.90;;;;;;5050884;28;20424;-42
2021/03/27 01:47:37;;;;;;;6.00;4.40;;;15.40;54.70;;;;;;5050389;28;20434;-42
2021/03/27 01:50:02;;;;;;;4.47;4.07;;;15.00;54.90;;;;;;5050120;28;20439;-42
2021/03/27 01:52:38;;;;;;;5.50;4.23;;;15.20;54.90;;;;;;5050973;28;20430;-42
2021/03/27 01:55:30;;;;;;;6.17;4.27;;;15.30;54.70;;;;;;5050249;28;20278;-42
2021/03/27 01:58:14;;;;;;;4.60;4.20;;;15.00;55.10;;;;;;5040146;28;20443;-42
2021/03/27 02:00:49;;;;;;;5.97;4.57;;;14.70;56.50;;;;;;5044390;28;20439;-42
2021/03/27 02:03:31;;;;;;;4.13;3.73;;;14.70;57.30;;;;;;5050709;28;21218;-42
2021/03/27 02:06:11;;;;;;;6.93;3.87;;;14.40;58.40;;;;;;5050045;28;20433;-42
2021/03/27 02:09:05;;;;;;;6.20;5.23;;;14.30;59.40;;;;;;5050141;28;20545;-42
2021/03/27 02:11:55;;;;;;;5.40;4.20;;;14.20;60.10;;;;;;5050074;28;20714;-42
2021/03/27 02:14:37;;;;;;;6.20;4.93;;;14.10;60.30;;;;;;5050808;28;20485;-41
2021/03/27 02:17:11;;;;;;;8.43;5.10;;;14.00;61.00;;;;;;5049896;28;20427;-41
2021/03/27 02:20:18;;;;;;;4.53;4.13;;;13.90;61.20;;;;;;5047379;28;20962;-43
2021/03/27 02:23:10;;;;;;;6.03;4.50;;;14.10;61.70;;;;;;5049552;28;20439;-42
2021/03/27 02:25:48;;;;;;;5.00;4.50;;;14.20;61.80;;;;;;5048537;28;20435;-42
2021/03/27 02:28:36;;;;;;;5.97;4.80;;;14.00;61.50;;;;;;5050029;28;20506;-43
2021/03/27 02:31:14;;;;;;;4.80;4.40;;;14.10;61.40;;;;;;5049479;28;20486;-42
2021/03/27 02:34:01;;;;;;;12.03;4.70;;;14.20;61.60;;;;;;5050318;28;20427;-43
2021/03/27 02:36:45;;;;;;;6.80;4.60;;;14.00;61.70;;;;;;5049551;28;20426;-42
2021/03/27 02:39:33;;;;;;;5.87;4.40;;;14.00;62.10;;;;;;5050308;28;20439;-43
2021/03/27 02:42:14;;;;;;;7.57;3.97;;;14.20;62.70;;;;;;5049586;28;20930;-43
2021/03/27 02:44:49;;;;;;;4.53;4.13;;;13.90;62.90;;;;;;5050401;28;20434;-43
2021/03/27 02:47:26;;;;;;;6.73;4.87;;;13.90;63.40;;;;;;5050290;28;20445;-42
2021/03/27 02:50:18;;;;;;;5.00;4.37;;;13.90;63.00;;;;;;5053337;28;20542;-42
2021/03/27 02:53:14;;;;;;;4.87;4.40;;;14.00;64.10;;;;;;5052598;28;20492;-44
2021/03/27 02:56:01;;;;;;;5.30;4.53;;;13.90;64.00;;;;;;5037966;28;20443;-42
2021/03/27 02:58:30;;;;;;;4.37;3.97;;;13.70;63.60;;;;;;5053698;28;20790;-46
2021/03/27 03:01:19;;;;;;;4.60;4.20;;;13.70;64.90;;;;;;5046767;28;20926;-43
2021/03/27 03:03:51;;;;;;;5.10;4.33;;;13.60;65.10;;;;;;5054041;28;20446;-42
2021/03/27 03:06:56;;;;;;;4.73;3.90;;;13.80;65.80;;;;;;5052839;28;20561;-42
2021/03/27 03:09:40;;;;;;;4.40;4.00;;;14.00;65.20;;;;;;5053659;28;20475;-42
2021/03/27 03:12:14;;;;;;;4.53;3.50;;;14.00;64.90;;;;;;5053109;28;20603;-41
2021/03/27 03:15:17;;;;;;;4.27;3.87;;;14.20;65.40;;;;;;5053646;28;20446;-44
2021/03/27 03:18:13;;;;;;;4.97;3.67;;;14.30;64.40;;;;;;5016802;28;20452;-42
2021/03/27 03:21:01;;;;;;;3.90;3.50;;;14.50;63.80;;;;;;5047359;28;20451;-42
2021/03/27 03:23:42;;;;;;;4.50;4.10;;;14.60;63.20;;;;;;5053502;28;20910;-43
2021/03/27 03:26:08;;;;;;;5.57;3.90;;;14.60;63.10;;;;;;5052164;28;20427;-42
2021/03/27 03:28:55;;;;;;;3.70;3.23;;;14.50;62.80;;;;;;5053372;28;20429;-41
2021/03/27 03:31:38;;;;;;;3.67;3.30;;;14.50;63.00;;;;;;5052437;28;20303;-41
2021/03/27 03:34:30;;;;;;;3.60;3.30;;;14.30;63.20;;;;;;5053091;28;20470;-42
2021/03/27 03:37:24;;;;;;;4.10;3.73;;;14.50;63.30;;;;;;5052175;28;20423;-42
2021/03/27 03:40:46;;;;;;;5.40;3.27;;;14.30;63.40;;;;;;5052581;28;20492;-42
2021/03/27 03:43:33;;;;;;;4.70;3.30;;;14.30;63.50;;;;;;5021606;28;20475;-41
2021/03/27 03:46:27;;;;;;;12.70;3.40;;;14.30;63.20;;;;;;5008108;28;20590;-42
2021/03/27 03:48:53;;;;;;;3.77;3.37;;;14.30;63.40;;;;;;5030922;28;20440;-41
2021/03/27 03:51:24;;;;;;;3.30;2.90;;;13.80;64.20;;;;;;5052185;28;20800;-42
2021/03/27 03:53:53;;;;;;;5.07;3.20;;;13.90;64.30;;;;;;5053164;28;20590;-42
2021/03/27 03:56:31;;;;;;;3.50;3.20;;;13.80;63.90;;;;;;5052009;28;20821;-41
2021/03/27 03:59:24;;;;;;;3.50;2.30;;;13.60;64.30;;;;;;5051422;28;20423;-42
2021/03/27 04:01:55;;;;;;;2.20;2.00;;;13.20;65.10;;;;;;5047657;28;20450;-41
2021/03/27 04:04:27;;;;;;;1.63;1.53;;;12.90;64.90;;;;;;5052681;28;20435;-41
2021/03/27 04:07:03;;;;;;;1.60;1.50;;;12.80;62.20;;;;;;5051570;28;20479;-41
2021/03/27 04:09:31;;;;;;;1.60;1.30;;;12.80;60.90;;;;;;5052643;28;20431;-41
2021/03/27 04:12:07;;;;;;;3.83;1.57;;;12.90;60.50;;;;;;5050111;28;20536;-43
2021/03/27 04:14:39;;;;;;;1.10;1.00;;;13.00;60.00;;;;;;5052672;28;20487;-41
2021/03/27 04:17:29;;;;;;;1.00;0.90;;;13.20;59.70;;;;;;5051488;28;20911;-41
2021/03/27 04:20:25;;;;;;;1.07;0.93;;;13.50;58.70;;;;;;5048541;28;20461;-41
2021/03/27 04:23:06;;;;;;;0.80;0.80;;;13.20;57.10;;;;;;5050781;28;20485;-42
2021/03/27 04:25:53;;;;;;;1.20;0.97;;;13.00;55.80;;;;;;5051688;28;20423;-41
2021/03/27 04:28:48;;;;;;;0.80;0.80;;;12.60;55.70;;;;;;5052331;28;20432;-43
2021/03/27 04:31:25;;;;;;;1.57;1.00;;;12.50;56.00;;;;;;5051721;28;20483;-42
2021/03/27 04:34:04;;;;;;;0.80;0.80;;;12.40;56.10;;;;;;5052287;28;20427;-41
2021/03/27 04:37:01;;;;;;;0.70;0.70;;;12.50;56.30;;;;;;5051365;28;20439;-41
2021/03/27 04:39:47;;;;;;;0.90;0.70;;;12.60;55.70;;;;;;5027556;28;20554;-41
2021/03/27 04:42:23;;;;;;;1.00;0.90;;;12.60;55.30;;;;;;5051822;28;20442;-41
2021/03/27 04:45:21;;;;;;;2.03;0.70;;;12.60;55.20;;;;;;5051639;28;20435;-41
2021/03/27 04:48:11;;;;;;;2.43;0.70;;;12.20;54.30;;;;;;5051439;28;20445;-42
2021/03/27 04:51:02;;;;;;;0.80;0.80;;;12.10;54.50;;;;;;5051218;28;20471;-41
2021/03/27 04:53:36;;;;;;;0.90;0.70;;;11.90;54.70;;;;;;5051517;28;20434;-41
2021/03/27 04:56:22;;;;;;;0.97;0.70;;;11.90;55.20;;;;;;5050964;28;20429;-41
2021/03/27 04:58:55;;;;;;;0.60;0.60;;;12.00;55.40;;;;;;5051451;28;21015;-42
2021/03/27 05:01:42;;;;;;;2.20;0.90;;;12.20;55.40;;;;;;5044679;28;20467;-41
2021/03/27 05:04:21;;;;;;;0.80;0.77;;;12.20;54.90;;;;;;5051442;28;20521;-42
2021/03/27 05:07:09;;;;;;;0.80;0.70;;;12.20;55.00;;;;;;5048811;28;20514;-41
2021/03/27 05:09:41;;;;;;;1.07;0.80;;;12.30;55.00;;;;;;5051463;28;20433;-41
2021/03/27 05:12:26;;;;;;;1.10;0.77;;;12.10;54.40;;;;;;5050236;28;20490;-41
2021/03/27 05:15:04;;;;;;;0.70;0.70;;;12.00;55.30;;;;;;5050930;28;20430;-41
2021/03/27 05:17:44;;;;;;;0.80;0.70;;;11.90;55.80;;;;;;5050880;28;20638;-41
2021/03/27 05:20:23;;;;;;;1.27;0.70;;;11.60;56.10;;;;;;5047298;28;21015;-41
2021/03/27 05:22:57;;;;;;;1.37;0.90;;;11.70;56.50;;;;;;5051067;28;20434;-41
2021/03/27 05:25:28;;;;;;;1.33;0.90;;;11.60;56.50;;;;;;5050841;28;20434;-41
2021/03/27 05:28:06;;;;;;;0.60;0.60;;;11.80;56.60;;;;;;5050914;28;20805;-41
2021/03/27 05:30:43;;;;;;;0.70;0.70;;;11.70;55.40;;;;;;5050074;28;20466;-41
2021/03/27 05:33:23;;;;;;;0.67;0.60;;;11.90;55.60;;;;;;5037178;28;20435;-41
2021/03/27 05:36:13;;;;;;;0.80;0.80;;;12.20;56.10;;;;;;5050257;28;20470;-41
2021/03/27 05:39:08;;;;;;;0.77;0.77;;;12.10;55.40;;;;;;5050839;28;20938;-41
2021/03/27 05:41:55;;;;;;;1.70;0.90;;;11.90;55.10;;;;;;5050509;28;20822;-41
2021/03/27 05:44:48;;;;;;;0.97;0.80;;;11.80;56.00;;;;;;5050915;28;20450;-44
2021/03/27 05:47:50;;;;;;;2.83;0.90;;;11.60;56.30;;;;;;5049884;28;20427;-41
2021/03/27 05:50:58;;;;;;;0.60;0.60;;;11.60;56.00;;;;;;5050090;28;20422;-41
2021/03/27 05:53:43;;;;;;;0.60;0.50;;;11.40;55.90;;;;;;5047421;28;20861;-41
2021/03/27 05:56:35;;;;;;;1.30;0.90;;;11.40;56.90;;;;;;5049834;28;20520;-42
2021/03/27 05:59:39;;;;;;;0.73;0.70;;;11.60;56.50;;;;;;5049009;28;20534;-41
2021/03/27 06:02:40;;;;;;;0.83;0.70;;;11.40;55.60;;;;;;5006848;28;20467;-41
2021/03/27 06:05:30;;;;;;;2.47;0.80;;;10.80;55.20;;;;;;5008074;28;20442;-41
2021/03/27 06:08:26;;;;;;;0.60;0.60;;;10.90;55.80;;;;;;5041796;28;21068;-41
2021/03/27 06:11:11;;;;;;;0.90;0.90;;;11.10;55.80;;;;;;5049978;28;21037;-41
2021/03/27 06:13:36;;;;;;;0.80;0.80;;;11.20;55.30;;;;;;5050525;28;20517;-41
2021/03/27 06:16:17;;;;;;;0.77;0.77;;;11.20;55.20;;;;;;5049631;28;20431;-41
2021/03/27 06:19:10;;;;;;;0.83;0.60;;;11.10;55.20;;;;;;5050504;28;20188;-41
2021/03/27 06:21:42;;;;;;;1.37;0.93;;;11.00;55.10;;;;;;5049092;28;20434;-41
2021/03/27 06:24:49;;;;;;;1.60;0.80;;;11.10;54.90;;;;;;5054121;28;20427;-41
2021/03/27 06:27:32;;;;;;;1.47;1.23;;;11.10;54.40;;;;;;5054197;28;20431;-42
2021/03/27 06:30:36;;;;;;;1.07;0.80;;;11.20;54.50;;;;;;5053762;28;21106;-41
2021/03/27 06:33:36;;;;;;;0.63;0.57;;;11.20;54.10;;;;;;5054368;28;20458;-41
2021/03/27 06:36:14;;;;;;;1.33;0.83;;;11.60;54.10;;;;;;5053314;28;20438;-41
2021/03/27 06:39:04;;;;;;;1.43;0.90;;;11.80;53.40;;;;;;5054224;28;20431;-41
2021/03/27 06:41:45;;;;;;;1.27;0.60;;;11.60;51.60;;;;;;5053596;28;20442;-41
2021/03/27 06:44:16;;;;;;;1.10;0.57;;;11.60;52.10;;;;;;5054559;28;20565;-41
2021/03/27 06:47:10;;;;;;;1.30;0.80;;;11.40;51.80;;;;;;5053357;28;20968;-41
2021/03/27 06:49:42;;;;;;;0.97;0.70;;;11.00;52.00;;;;;;5054184;28;20476;-41
2021/03/27 06:52:26;;;;;;;1.30;0.70;;;11.00;52.50;;;;;;5051705;28;20516;-41
2021/03/27 06:55:00;;;;;;;2.20;1.10;;;10.90;52.10;;;;;;5053479;28;20538;-43
2021/03/27 06:58:03;;;;;;;2.70;1.17;;;10.70;52.30;;;;;;5053339;28;20415;-42
2021/03/27 07:00:47;;;;;;;1.20;0.80;;;10.70;52.60;;;;;;5047070;28;20509;-41
2021/03/27 07:03:50;;;;;;;2.33;0.90;;;11.00;52.70;;;;;;5053795;28;20770;-41
2021/03/27 07:06:24;;;;;;;3.03;1.17;;;11.50;52.20;;;;;;5052909;28;20476;-43
2021/03/27 07:09:02;;;;;;;10.47;9.53;;;11.60;51.40;;;;;;5053770;28;20784;-41
2021/03/27 07:11:57;;;;;;;1.03;0.77;;;12.00;51.40;;;;;;5053146;28;20486;-41
2021/03/27 07:14:47;;;;;;;1.83;0.77;;;12.20;49.90;;;;;;5053936;28;20445;-41
2021/03/27 07:17:31;;;;;;;2.80;0.70;;;12.30;48.90;;;;;;5053200;28;20439;-42
2021/03/27 07:20:21;;;;;;;3.27;0.90;;;12.20;47.80;;;;;;5048112;28;20980;-42
2021/03/27 07:23:18;;;;;;;1.80;1.10;;;12.30;47.90;;;;;;5053385;28;20477;-41
2021/03/27 07:26:19;;;;;;;1.73;1.00;;;12.40;46.80;;;;;;5052721;28;20434;-42
2021/03/27 07:29:30;;;;;;;1.90;0.80;;;12.10;45.50;;;;;;5053652;28;20434;-43
2021/03/27 07:32:18;;;;;;;2.13;0.73;;;12.00;45.50;;;;;;5049820;28;20478;-42
2021/03/27 07:35:38;;;;;;;2.73;0.80;;;12.00;44.80;;;;;;5053135;28;20596;-42
2021/03/27 07:38:28;;;;;;;2.30;1.00;;;11.70;45.10;;;;;;5053209;28;20423;-41
2021/03/27 07:41:21;;;;;;;1.20;0.70;;;11.80;46.40;;;;;;5052277;28;20436;-42
2021/03/27 07:44:05;;;;;;;2.50;0.90;;;12.10;46.00;;;;;;5053085;28;20437;-43
2021/03/27 07:47:02;;;;;;;1.23;0.70;;;12.10;44.90;;;;;;5050487;28;20431;-42
2021/03/27 07:49:49;;;;;;;1.87;0.80;;;12.00;44.70;;;;;;5052942;28;20491;-43
2021/03/27 07:52:52;;;;;;;0.80;0.70;;;12.00;44.30;;;;;;5052464;28;20551;-42
2021/03/27 07:55:36;;;;;;;1.43;1.00;;;12.30;44.20;;;;;;5052460;28;20427;-41
2021/03/27 07:58:13;;;;;;;1.90;0.90;;;12.00;42.70;;;;;;5052815;28;20427;-43
2021/03/27 08:00:44;;;;;;;2.20;0.73;;;12.00;42.40;;;;;;5046163;28;20468;-44
2021/03/27 08:03:35;;;;;;;3.60;0.60;;;12.00;42.50;;;;;;5052808;28;20473;-42
2021/03/27 08:06:09;;;;;;;0.90;0.60;;;12.20;42.50;;;;;;5051664;28;20470;-42
2021/03/27 08:08:53;;;;;;;0.90;0.60;;;12.00;41.90;;;;;;5050981;28;20513;-42
2021/03/27 08:11:57;;;;;;;2.90;1.57;;;12.10;41.90;;;;;;5051010;28;20919;-42
2021/03/27 08:14:44;;;;;;;2.60;0.80;;;12.40;41.80;;;;;;5052843;28;20887;-43
2021/03/27 08:17:35;;;;;;;2.60;0.70;;;12.50;41.50;;;;;;5051905;28;20459;-44
2021/03/27 08:20:38;;;;;;;1.03;0.70;;;12.80;41.40;;;;;;5051449;28;20934;-43
2021/03/27 08:23:22;;;;;;;1.87;1.60;;;12.80;41.20;;;;;;5052274;28;20858;-43
2021/03/27 08:26:16;;;;;;;1.47;0.63;;;12.90;40.90;;;;;;5051392;28;20811;-42
2021/03/27 08:29:31;;;;;;;0.60;0.60;;;12.80;40.30;;;;;;5051967;28;20427;-42
2021/03/27 08:32:22;;;;;;;1.90;0.60;;;12.70;40.80;;;;;;5018044;28;20503;-42
2021/03/27 08:35:28;;;;;;;3.00;0.90;;;12.70;41.00;;;;;;5039993;28;20546;-44
2021/03/27 08:38:08;;;;;;;1.73;0.73;;;12.80;41.30;;;;;;5048669;28;20458;-42
2021/03/27 08:41:02;;;;;;;1.27;0.67;;;12.50;41.70;;;;;;5050737;28;20505;-42
2021/03/27 08:44:04;;;;;;;1.57;0.63;;;12.50;42.20;;;;;;5052002;28;20432;-43
2021/03/27 08:46:44;;;;;;;1.00;0.70;;;12.70;42.10;;;;;;5050344;28;20438;-45
2021/03/27 08:49:19;;;;;;;1.63;0.83;;;13.00;41.40;;;;;;5051665;28;20434;-43
2021/03/27 08:51:58;;;;;;;2.23;1.40;;;13.30;40.90;;;;;;5051107;28;20493;-42
2021/03/27 08:54:52;;;;;;;1.77;0.60;;;13.20;39.30;;;;;;5051658;28;20427;-43
2021/03/27 08:57:34;;;;;;;1.27;0.60;;;13.30;39.20;;;;;;5051223;28;20443;-42
2021/03/27 09:00:16;;;;;;;1.87;0.83;;;13.00;38.40;;;;;;5045680;28;20789;-43
2021/03/27 09:03:08;;;;;;;1.30;0.90;;;12.50;37.00;;;;;;5051709;28;20443;-42
2021/03/27 09:05:59;;;;;;;0.90;0.60;;;12.30;37.20;;;;;;5049058;28;20450;-42
2021/03/27 09:08:36;;;;;;;1.53;0.70;;;12.20;37.30;;;;;;5051409;28;20498;-44
2021/03/27 09:11:27;;;;;;;2.30;0.80;;;12.40;37.60;;;;;;5050766;28;20517;-42
2021/03/27 09:14:04;;;;;;;0.87;0.70;;;12.40;37.80;;;;;;5041062;28;20470;-43
2021/03/27 09:16:33;;;;;;;1.93;1.00;;;12.70;37.50;;;;;;5050185;28;20906;-41
2021/03/27 09:19:19;;;;;;;0.80;0.70;;;12.60;37.50;;;;;;5050605;28;20942;-42
2021/03/27 09:22:22;;;;;;;1.93;0.73;;;12.50;36.80;;;;;;5037934;28;20510;-42
2021/03/27 09:25:05;;;;;;;1.73;0.97;;;12.40;36.80;;;;;;5050821;28;20477;-41
2021/03/27 09:28:01;;;;;;;1.27;0.77;;;12.80;36.80;;;;;;5050468;28;20433;-44
2021/03/27 09:30:52;;;;;;;0.90;0.70;;;12.80;35.30;;;;;;5050667;28;20423;-42
2021/03/27 09:33:30;;;;;;;2.20;0.80;;;12.90;34.80;;;;;;5021814;28;20938;-41
2021/03/27 09:36:49;;;;;;;3.03;0.83;;;12.90;33.90;;;;;;5050235;28;20463;-42
2021/03/27 09:39:42;;;;;;;1.27;0.70;;;13.10;34.50;;;;;;5011619;28;20920;-42
2021/03/27 09:42:44;;;;;;;2.17;0.90;;;13.30;34.50;;;;;;5044235;28;20505;-42
2021/03/27 09:45:14;;;;;;;1.73;1.00;;;13.60;35.10;;;;;;5049792;28;21249;-42
2021/03/27 09:48:14;;;;;;;3.57;1.10;;;13.50;34.00;;;;;;5050842;28;20481;-43
2021/03/27 09:51:01;;;;;;;4.20;0.70;;;13.70;34.20;;;;;;5050268;28;20466;-42
2021/03/27 09:53:47;;;;;;;0.77;0.77;;;13.80;33.30;;;;;;5050869;28;20859;-42
2021/03/27 09:56:32;;;;;;;1.00;0.80;;;13.60;33.40;;;;;;5049729;28;20435;-42
2021/03/27 09:59:18;;;;;;;2.00;1.53;;;14.10;34.00;;;;;;5049178;28;20434;-42
2021/03/27 10:02:02;;;;;;;0.70;0.60;;;14.60;33.70;;;;;;5044989;28;20428;-42
2021/03/27 10:05:09;;;;;;;1.00;0.63;;;14.40;32.70;;;;;;5050833;28;20512;-44
2021/03/27 10:07:54;;;;;;;2.50;0.90;;;14.80;33.60;;;;;;5049314;28;20487;-42
2021/03/27 10:10:39;;;;;;;2.93;0.97;;;15.10;32.50;;;;;;5049867;28;20431;-43
2021/03/27 10:13:36;;;;;;;1.00;0.80;;;15.40;31.40;;;;;;5050623;28;20915;-42
2021/03/27 10:16:07;;;;;;;1.03;0.70;;;15.50;30.20;;;;;;5027112;28;20436;-43
2021/03/27 10:18:55;;;;;;;2.40;0.80;;;15.40;31.20;;;;;;5050756;28;20545;-44
2021/03/27 10:21:48;;;;;;;1.00;0.90;;;15.40;30.60;;;;;;5047079;28;20811;-42
2021/03/27 10:24:28;;;;;;;1.37;0.73;;;15.50;30.30;;;;;;5050871;28;20476;-43
2021/03/27 10:27:23;;;;;;;0.90;0.80;;;15.70;29.80;;;;;;5048066;28;20423;-46
2021/03/27 10:29:54;;;;;;;0.70;0.60;;;15.80;29.50;;;;;;5047062;28;20454;-43
2021/03/27 10:32:32;;;;;;;1.13;0.70;;;15.50;30.20;;;;;;5044581;28;20860;-42
2021/03/27 10:35:18;;;;;;;0.80;0.60;;;15.30;30.50;;;;;;5049924;28;20426;-42
2021/03/27 10:37:58;;;;;;;0.77;0.67;;;15.10;29.70;;;;;;5050752;28;20833;-42
2021/03/27 10:40:53;;;;;;;1.73;0.80;;;14.70;29.70;;;;;;5049515;28;20411;-43
2021/03/27 10:43:43;;;;;;;0.67;0.67;;;14.70;30.40;;;;;;5050428;28;20427;-41
2021/03/27 10:46:15;;;;;;;1.07;0.70;;;14.40;30.50;;;;;;5049324;28;20465;-43
2021/03/27 10:48:40;;;;;;;1.03;0.90;;;14.40;31.10;;;;;;5050308;28;20434;-43
2021/03/27 10:51:36;;;;;;;0.73;0.60;;;14.40;31.80;;;;;;5049342;28;20484;-43
2021/03/27 10:54:39;;;;;;;0.70;0.60;;;14.60;31.30;;;;;;5049879;28;20552;-41
2021/03/27 10:57:13;;;;;;;1.67;0.90;;;14.50;30.90;;;;;;5049224;28;20530;-42
2021/03/27 10:59:58;;;;;;;1.20;0.67;;;14.80;30.10;;;;;;5045901;28;21031;-42
2021/03/27 11:02:48;;;;;;;0.93;0.80;;;14.80;30.10;;;;;;5037484;28;20453;-42
2021/03/27 11:05:37;;;;;;;3.80;0.80;;;15.30;30.20;;;;;;5049336;28;20419;-42
2021/03/27 11:08:38;;;;;;;1.30;0.73;;;15.30;29.80;;;;;;5048526;28;20486;-43
2021/03/27 11:11:40;;;;;;;2.60;0.90;;;15.40;29.40;;;;;;5052857;28;20498;-42
2021/03/27 11:14:33;;;;;;;1.60;0.80;;;15.30;29.50;;;;;;5031312;28;20432;-42
2021/03/27 11:17:36;;;;;;;0.70;0.70;;;15.50;30.00;;;;;;5040430;28;20633;-42
2021/03/27 11:20:07;;;;;;;2.40;0.80;;;15.80;30.10;;;;;;5048036;28;20443;-42
2021/03/27 11:22:55;;;;;;;2.50;0.90;;;15.70;29.70;;;;;;5053263;28;20449;-43
2021/03/27 11:25:46;;;;;;;1.27;0.80;;;15.40;29.20;;;;;;5052439;28;20821;-42
2021/03/27 11:28:24;;;;;;;1.30;0.97;;;15.20;29.70;;;;;;5053530;28;20423;-43
2021/03/27 11:31:08;;;;;;;1.33;0.83;;;15.80;30.80;;;;;;5052595;28;20914;-43
2021/03/27 11:33:43;;;;;;;2.67;0.90;;;16.20;30.20;;;;;;5053100;28;20427;-42
2021/03/27 11:36:37;;;;;;;1.47;0.90;;;15.90;29.50;;;;;;5052813;28;20435;-42
2021/03/27 11:39:30;;;;;;;0.93;0.90;;;16.10;29.60;;;;;;5052255;28;20509;-42
2021/03/27 11:42:31;;;;;;;3.87;2.00;;;15.70;29.40;;;;;;5052546;28;20485;-42
2021/03/27 11:45:05;;;;;;;1.27;0.80;;;15.60;29.20;;;;;;5050814;28;20415;-42
2021/03/27 11:47:46;;;;;;;1.47;0.80;;;15.40;28.50;;;;;;5053160;28;20914;-42
2021/03/27 11:50:33;;;;;;;3.13;1.20;;;15.30;28.80;;;;;;5052365;28;20850;-43
2021/03/27 11:53:01;;;;;;;2.30;1.00;;;15.30;29.00;;;;;;5053049;28;20430;-43
2021/03/27 11:55:32;;;;;;;2.20;0.93;;;15.10;29.20;;;;;;5051834;28;20484;-43
2021/03/27 11:58:20;;;;;;;1.47;0.70;;;15.10;29.60;;;;;;5051577;28;20443;-44
2021/03/27 12:01:02;;;;;;;1.63;0.77;;;15.10;29.20;;;;;;5045813;28;20427;-43
2021/03/27 12:03:52;;;;;;;2.83;0.93;;;15.30;28.70;;;;;;5052515;28;20493;-44
2021/03/27 12:06:23;;;;;;;1.10;0.70;;;15.80;29.10;;;;;;5051599;28;20434;-43
2021/03/27 12:08:55;;;;;;;1.97;0.80;;;15.70;28.10;;;;;;5052644;28;20504;-43
2021/03/27 12:11:47;;;;;;;2.40;1.27;;;15.70;28.60;;;;;;5051784;28;20489;-42
2021/03/27 12:14:30;;;;;;;1.33;0.80;;;16.00;29.00;;;;;;5044037;28;20443;-44
2021/03/27 12:16:59;;;;;;;2.90;0.90;;;16.10;29.00;;;;;;5051620;28;20435;-44
2021/03/27 12:19:39;;;;;;;1.70;0.70;;;16.00;28.60;;;;;;5048676;28;20569;-45
2021/03/27 12:22:27;;;;;;;1.13;1.03;;;16.00;28.90;;;;;;5051198;28;20462;-43
2021/03/27 12:25:07;;;;;;;1.40;1.10;;;16.40;28.90;;;;;;5051545;28;20431;-43
2021/03/27 12:28:09;;;;;;;1.67;0.80;;;16.40;28.20;;;;;;5052122;28;20529;-44
2021/03/27 12:30:57;;;;;;;3.47;1.17;;;16.00;28.80;;;;;;5050296;28;20434;-43
2021/03/27 12:33:51;;;;;;;3.33;0.90;;;16.10;29.10;;;;;;5041536;28;20423;-43
2021/03/27 12:36:21;;;;;;;1.97;1.00;;;15.60;28.60;;;;;;5051082;28;20427;-43
2021/03/27 12:39:08;;;;;;;1.70;0.90;;;15.70;29.40;;;;;;5050360;28;20845;-44
2021/03/27 12:41:57;;;;;;;1.07;0.87;;;16.10;29.70;;;;;;5051421;28;20460;-46
2021/03/27 12:44:32;;;;;;;2.53;0.93;;;15.80;29.10;;;;;;5027086;28;20842;-42
2021/03/27 12:47:35;;;;;;;5.23;1.10;;;15.80;29.10;;;;;;5051322;28;20427;-45
2021/03/27 12:50:20;;;;;;;2.20;0.90;;;15.70;29.50;;;;;;5044229;28;20449;-44
2021/03/27 12:53:07;;;;;;;2.90;1.00;;;15.70;30.00;;;;;;5052009;28;20870;-42
2021/03/27 12:55:47;;;;;;;2.30;0.80;;;15.70;29.30;;;;;;5050765;28;20471;-43
2021/03/27 12:58:27;;;;;;;2.30;1.00;;;15.90;29.40;;;;;;5051854;28;20434;-42
2021/03/27 13:01:26;;;;;;;1.70;0.90;;;16.20;29.90;;;;;;5045549;28;20794;-43
2021/03/27 13:04:13;;;;;;;2.13;1.07;;;16.20;29.20;;;;;;5051452;28;20431;-42
2021/03/27 13:07:26;;;;;;;2.47;0.83;;;16.10;29.30;;;;;;5048979;28;20467;-42
2021/03/27 13:10:22;;;;;;;1.80;1.20;;;15.80;29.10;;;;;;5048360;28;20447;-43
2021/03/27 13:13:11;;;;;;;2.00;1.03;;;15.80;28.90;;;;;;5051635;28;20455;-42
2021/03/27 13:16:05;;;;;;;2.70;0.77;;;15.70;28.50;;;;;;5040684;28;20427;-42
2021/03/27 13:18:36;;;;;;;0.90;0.90;;;15.80;28.50;;;;;;5051264;28;20438;-42
2021/03/27 13:21:07;;;;;;;2.47;1.20;;;15.90;29.20;;;;;;5047206;28;20493;-44
2021/03/27 13:24:11;;;;;;;2.20;1.00;;;16.00;29.50;;;;;;5051135;28;20973;-44
2021/03/27 13:26:38;;;;;;;2.50;1.00;;;16.30;28.80;;;;;;5048753;28;20497;-44
2021/03/27 13:29:34;;;;;;;0.83;0.80;;;16.20;28.40;;;;;;5051215;28;20427;-44
2021/03/27 13:32:28;;;;;;;1.73;0.70;;;16.20;28.30;;;;;;5048584;28;20490;-43
2021/03/27 13:34:59;;;;;;;1.93;1.70;;;16.40;27.90;;;;;;5050358;28;20431;-43
2021/03/27 13:37:43;;;;;;;1.57;0.97;;;16.40;27.60;;;;;;5050957;28;20419;-42
2021/03/27 13:40:33;;;;;;;1.30;1.00;;;16.10;27.60;;;;;;5050300;28;20818;-42
2021/03/27 13:43:21;;;;;;;1.67;1.03;;;16.10;28.00;;;;;;5051071;28;20427;-45
2021/03/27 13:45:55;;;;;;;4.10;0.93;;;16.20;28.10;;;;;;5050111;28;20435;-43
2021/03/27 13:48:30;;;;;;;1.70;0.90;;;16.10;28.20;;;;;;5050786;28;20507;-42
2021/03/27 13:51:21;;;;;;;1.67;0.87;;;15.70;28.50;;;;;;5050696;28;20552;-43
2021/03/27 13:53:58;;;;;;;1.17;0.80;;;15.30;28.90;;;;;;5050796;28;20486;-45
2021/03/27 13:56:55;;;;;;;2.23;1.17;;;15.30;29.20;;;;;;5049786;28;20443;-42
2021/03/27 13:59:41;;;;;;;0.77;0.73;;;15.60;29.60;;;;;;5047145;28;20896;-43
2021/03/27 14:02:13;;;;;;;1.33;0.80;;;15.90;29.30;;;;;;5048043;28;21274;-43
2021/03/27 14:04:43;;;;;;;2.30;1.10;;;16.30;29.10;;;;;;5050733;28;20443;-43
2021/03/27 14:07:18;;;;;;;1.33;0.97;;;16.60;28.90;;;;;;5049952;28;20553;-43
2021/03/27 14:10:06;;;;;;;1.30;1.10;;;16.90;28.80;;;;;;5050661;28;20439;-43
2021/03/27 14:12:48;;;;;;;1.87;1.43;;;16.40;28.20;;;;;;5050426;28;20577;-42
2021/03/27 14:15:21;;;;;;;2.87;1.20;;;16.40;28.20;;;;;;5036648;28;20509;-44